sensor_id;sensor_type;location;lat;lon;timestamp;P1;durP1;ratioP1;P2;durP2;ratioP2
9986;SDS011;5033;46.310;11.214;2024-02-04T00:02:14;2.08;;;1.90;;
9986;SDS011;5033;46.310;11.214;2024-02-04T00:04:42;2.10;;;2.00;;
9986;SDS011;5033;46.310;11.214;2024-02-04T00:07:08;1.90;;;1.80;;
9986;SDS011;5033;46.310;11.214;2024-02-04T00:09:35;2.00;;;1.90;;
9986;SDS011;5033;46.310;11.214;2024-02-04T00:12:03;2.10;;;2.00;;
9986;SDS011;5033;46.310;11.214;2024-02-04T00:14:32;1.90;;;1.80;;
9986;SDS011;5033;46.310;11.214;2024-02-04T00:16:59;2.00;;;1.90;;
9986;SDS011;5033;46.310;11.214;2024-02-04T00:19:26;2.45;;;1.77;;
9986;SDS011;5033;46.310;11.214;2024-02-04T00:21:53;1.65;;;1.55;;
9986;SDS011;5033;46.310;11.214;2024-02-04T00:24:20;1.90;;;1.80;;
9986;SDS011;5033;46.310;11.214;2024-02-04T00:26:47;1.92;;;1.70;;
9986;SDS011;5033;46.310;11.214;2024-02-04T00:29:14;2.17;;;2.08;;
9986;SDS011;5033;46.310;11.214;2024-02-04T00:31:43;1.92;;;1.83;;
9986;SDS011;5033;46.310;11.214;2024-02-04T00:34:10;2.00;;;1.90;;
9986;SDS011;5033;46.310;11.214;2024-02-04T00:36:37;2.20;;;2.10;;
9986;SDS011;5033;46.310;11.214;2024-02-04T00:39:04;1.92;;;1.83;;
9986;SDS011;5033;46.310;11.214;2024-02-04T00:41:32;1.83;;;1.73;;
9986;SDS011;5033;46.310;11.214;2024-02-04T00:43:59;2.10;;;2.00;;
9986;SDS011;5033;46.310;11.214;2024-02-04T00:46:26;1.73;;;1.63;;
9986;SDS011;5033;46.310;11.214;2024-02-04T00:48:55;1.73;;;1.63;;
9986;SDS011;5033;46.310;11.214;2024-02-04T00:51:23;2.08;;;1.98;;
9986;SDS011;5033;46.310;11.214;2024-02-04T00:53:50;1.95;;;1.85;;
9986;SDS011;5033;46.310;11.214;2024-02-04T00:56:17;2.03;;;1.92;;
9986;SDS011;5033;46.310;11.214;2024-02-04T00:58:45;1.88;;;1.77;;
9986;SDS011;5033;46.310;11.214;2024-02-04T01:01:12;1.88;;;1.77;;
9986;SDS011;5033;46.310;11.214;2024-02-04T01:03:39;2.05;;;1.80;;
9986;SDS011;5033;46.310;11.214;2024-02-04T01:06:07;1.85;;;1.75;;
9986;SDS011;5033;46.310;11.214;2024-02-04T01:08:34;1.90;;;1.80;;
9986;SDS011;5033;46.310;11.214;2024-02-04T01:11:02;1.70;;;1.60;;
9986;SDS011;5033;46.310;11.214;2024-02-04T01:13:30;1.85;;;1.75;;
9986;SDS011;5033;46.310;11.214;2024-02-04T01:15:57;1.73;;;1.63;;
9986;SDS011;5033;46.310;11.214;2024-02-04T01:18:24;1.73;;;1.70;;
9986;SDS011;5033;46.310;11.214;2024-02-04T01:20:51;2.00;;;1.90;;
9986;SDS011;5033;46.310;11.214;2024-02-04T01:23:19;1.70;;;1.60;;
9986;SDS011;5033;46.310;11.214;2024-02-04T01:25:46;1.85;;;1.75;;
9986;SDS011;5033;46.310;11.214;2024-02-04T01:28:13;2.17;;;2.08;;
9986;SDS011;5033;46.310;11.214;2024-02-04T01:30:40;1.58;;;1.48;;
9986;SDS011;5033;46.310;11.214;2024-02-04T01:33:07;2.00;;;1.90;;
9986;SDS011;5033;46.310;11.214;2024-02-04T01:35:33;1.90;;;1.80;;
9986;SDS011;5033;46.310;11.214;2024-02-04T01:38:00;1.90;;;1.80;;
9986;SDS011;5033;46.310;11.214;2024-02-04T01:40:29;1.88;;;1.77;;
9986;SDS011;5033;46.310;11.214;2024-02-04T01:42:56;2.08;;;1.98;;
9986;SDS011;5033;46.310;11.214;2024-02-04T01:45:23;1.90;;;1.80;;
9986;SDS011;5033;46.310;11.214;2024-02-04T01:47:50;2.00;;;1.90;;
9986;SDS011;5033;46.310;11.214;2024-02-04T01:50:18;2.33;;;2.20;;
9986;SDS011;5033;46.310;11.214;2024-02-04T01:52:46;1.77;;;1.67;;
9986;SDS011;5033;46.310;11.214;2024-02-04T01:55:13;1.77;;;1.70;;
9986;SDS011;5033;46.310;11.214;2024-02-04T01:57:42;2.08;;;1.98;;
9986;SDS011;5033;46.310;11.214;2024-02-04T02:00:09;1.90;;;1.80;;
9986;SDS011;5033;46.310;11.214;2024-02-04T02:02:38;1.75;;;1.65;;
9986;SDS011;5033;46.310;11.214;2024-02-04T02:05:06;1.98;;;1.88;;
9986;SDS011;5033;46.310;11.214;2024-02-04T02:07:34;2.00;;;1.90;;
9986;SDS011;5033;46.310;11.214;2024-02-04T02:10:00;2.10;;;2.00;;
9986;SDS011;5033;46.310;11.214;2024-02-04T02:12:32;2.10;;;2.00;;
9986;SDS011;5033;46.310;11.214;2024-02-04T02:15:05;2.03;;;1.92;;
9986;SDS011;5033;46.310;11.214;2024-02-04T02:17:38;2.00;;;1.90;;
9986;SDS011;5033;46.310;11.214;2024-02-04T02:20:16;1.83;;;1.73;;
9986;SDS011;5033;46.310;11.214;2024-02-04T02:22:48;1.85;;;1.75;;
9986;SDS011;5033;46.310;11.214;2024-02-04T02:25:18;1.60;;;1.50;;
9986;SDS011;5033;46.310;11.214;2024-02-04T02:27:48;2.20;;;2.10;;
9986;SDS011;5033;46.310;11.214;2024-02-04T02:30:16;2.22;;;2.03;;
9986;SDS011;5033;46.310;11.214;2024-02-04T02:32:44;2.20;;;2.10;;
9986;SDS011;5033;46.310;11.214;2024-02-04T02:35:12;2.00;;;1.83;;
9986;SDS011;5033;46.310;11.214;2024-02-04T02:37:41;2.75;;;1.90;;
9986;SDS011;5033;46.310;11.214;2024-02-04T02:40:13;1.98;;;1.88;;
9986;SDS011;5033;46.310;11.214;2024-02-04T02:42:46;1.88;;;1.77;;
9986;SDS011;5033;46.310;11.214;2024-02-04T02:45:15;2.25;;;2.15;;
9986;SDS011;5033;46.310;11.214;2024-02-04T02:47:43;2.33;;;2.22;;
9986;SDS011;5033;46.310;11.214;2024-02-04T02:50:10;2.00;;;1.90;;
9986;SDS011;5033;46.310;11.214;2024-02-04T02:52:39;2.10;;;2.00;;
9986;SDS011;5033;46.310;11.214;2024-02-04T02:55:06;1.75;;;1.73;;
9986;SDS011;5033;46.310;11.214;2024-02-04T02:57:33;1.67;;;1.60;;
9986;SDS011;5033;46.310;11.214;2024-02-04T03:00:02;2.10;;;2.00;;
9986;SDS011;5033;46.310;11.214;2024-02-04T03:02:30;2.00;;;1.90;;
9986;SDS011;5033;46.310;11.214;2024-02-04T03:04:58;2.17;;;2.08;;
9986;SDS011;5033;46.310;11.214;2024-02-04T03:07:25;1.90;;;1.80;;
9986;SDS011;5033;46.310;11.214;2024-02-04T03:09:52;1.77;;;1.70;;
9986;SDS011;5033;46.310;11.214;2024-02-04T03:12:20;2.08;;;1.98;;
9986;SDS011;5033;46.310;11.214;2024-02-04T03:14:47;1.88;;;1.80;;
9986;SDS011;5033;46.310;11.214;2024-02-04T03:17:15;1.90;;;1.80;;
9986;SDS011;5033;46.310;11.214;2024-02-04T03:19:45;2.03;;;1.92;;
9986;SDS011;5033;46.310;11.214;2024-02-04T03:22:13;2.05;;;1.95;;
9986;SDS011;5033;46.310;11.214;2024-02-04T03:24:40;2.15;;;2.05;;
9986;SDS011;5033;46.310;11.214;2024-02-04T03:27:07;1.95;;;1.85;;
9986;SDS011;5033;46.310;11.214;2024-02-04T03:29:34;2.00;;;1.90;;
9986;SDS011;5033;46.310;11.214;2024-02-04T03:32:01;2.38;;;2.28;;
9986;SDS011;5033;46.310;11.214;2024-02-04T03:34:29;2.15;;;2.05;;
9986;SDS011;5033;46.310;11.214;2024-02-04T03:36:57;1.92;;;1.83;;
9986;SDS011;5033;46.310;11.214;2024-02-04T03:39:23;2.00;;;1.90;;
9986;SDS011;5033;46.310;11.214;2024-02-04T03:41:51;1.80;;;1.73;;
9986;SDS011;5033;46.310;11.214;2024-02-04T03:44:18;2.10;;;2.00;;
9986;SDS011;5033;46.310;11.214;2024-02-04T03:46:47;2.35;;;2.25;;
9986;SDS011;5033;46.310;11.214;2024-02-04T03:49:15;2.15;;;2.05;;
9986;SDS011;5033;46.310;11.214;2024-02-04T03:51:43;2.05;;;1.95;;
9986;SDS011;5033;46.310;11.214;2024-02-04T03:54:10;1.65;;;1.60;;
9986;SDS011;5033;46.310;11.214;2024-02-04T03:56:37;2.10;;;2.00;;
9986;SDS011;5033;46.310;11.214;2024-02-04T03:59:04;2.10;;;2.00;;
9986;SDS011;5033;46.310;11.214;2024-02-04T04:01:34;2.05;;;1.95;;
9986;SDS011;5033;46.310;11.214;2024-02-04T04:04:01;2.05;;;1.95;;
9986;SDS011;5033;46.310;11.214;2024-02-04T04:06:28;1.80;;;1.70;;
9986;SDS011;5033;46.310;11.214;2024-02-04T04:08:57;2.10;;;2.00;;
9986;SDS011;5033;46.310;11.214;2024-02-04T04:11:24;1.80;;;1.70;;
9986;SDS011;5033;46.310;11.214;2024-02-04T04:13:51;2.00;;;1.90;;
9986;SDS011;5033;46.310;11.214;2024-02-04T04:16:20;1.90;;;1.80;;
9986;SDS011;5033;46.310;11.214;2024-02-04T04:18:47;1.98;;;1.88;;
9986;SDS011;5033;46.310;11.214;2024-02-04T04:21:14;1.92;;;1.83;;
9986;SDS011;5033;46.310;11.214;2024-02-04T04:23:41;1.88;;;1.77;;
9986;SDS011;5033;46.310;11.214;2024-02-04T04:26:10;1.92;;;1.90;;
9986;SDS011;5033;46.310;11.214;2024-02-04T04:28:37;2.15;;;2.05;;
9986;SDS011;5033;46.310;11.214;2024-02-04T04:31:04;1.80;;;1.70;;
9986;SDS011;5033;46.310;11.214;2024-02-04T04:33:31;1.92;;;1.83;;
9986;SDS011;5033;46.310;11.214;2024-02-04T04:35:58;2.17;;;2.08;;
9986;SDS011;5033;46.310;11.214;2024-02-04T04:38:25;1.95;;;1.85;;
9986;SDS011;5033;46.310;11.214;2024-02-04T04:40:52;2.08;;;1.98;;
9986;SDS011;5033;46.310;11.214;2024-02-04T04:43:20;1.88;;;1.77;;
9986;SDS011;5033;46.310;11.214;2024-02-04T04:45:47;2.08;;;1.98;;
9986;SDS011;5033;46.310;11.214;2024-02-04T04:48:14;2.38;;;2.28;;
9986;SDS011;5033;46.310;11.214;2024-02-04T04:50:41;2.17;;;2.08;;
9986;SDS011;5033;46.310;11.214;2024-02-04T04:53:08;1.67;;;1.58;;
9986;SDS011;5033;46.310;11.214;2024-02-04T04:55:35;2.10;;;2.00;;
9986;SDS011;5033;46.310;11.214;2024-02-04T04:58:02;2.20;;;2.10;;
9986;SDS011;5033;46.310;11.214;2024-02-04T05:00:30;2.10;;;1.90;;
9986;SDS011;5033;46.310;11.214;2024-02-04T05:02:57;2.13;;;2.03;;
9986;SDS011;5033;46.310;11.214;2024-02-04T05:05:24;1.88;;;1.77;;
9986;SDS011;5033;46.310;11.214;2024-02-04T05:07:51;2.10;;;2.00;;
9986;SDS011;5033;46.310;11.214;2024-02-04T05:10:18;2.25;;;2.13;;
9986;SDS011;5033;46.310;11.214;2024-02-04T05:12:45;1.85;;;1.80;;
9986;SDS011;5033;46.310;11.214;2024-02-04T05:15:12;1.80;;;1.70;;
9986;SDS011;5033;46.310;11.214;2024-02-04T05:17:40;1.83;;;1.73;;
9986;SDS011;5033;46.310;11.214;2024-02-04T05:20:07;1.80;;;1.70;;
9986;SDS011;5033;46.310;11.214;2024-02-04T05:22:35;2.10;;;2.00;;
9986;SDS011;5033;46.310;11.214;2024-02-04T05:25:02;2.13;;;2.03;;
9986;SDS011;5033;46.310;11.214;2024-02-04T05:27:30;2.40;;;2.30;;
9986;SDS011;5033;46.310;11.214;2024-02-04T05:29:57;2.63;;;1.90;;
9986;SDS011;5033;46.310;11.214;2024-02-04T05:32:23;2.40;;;2.30;;
9986;SDS011;5033;46.310;11.214;2024-02-04T05:34:52;2.17;;;2.08;;
9986;SDS011;5033;46.310;11.214;2024-02-04T05:37:19;1.73;;;1.65;;
9986;SDS011;5033;46.310;11.214;2024-02-04T05:39:46;2.03;;;1.92;;
9986;SDS011;5033;46.310;11.214;2024-02-04T05:42:13;2.00;;;1.90;;
9986;SDS011;5033;46.310;11.214;2024-02-04T05:44:40;1.52;;;1.52;;
9986;SDS011;5033;46.310;11.214;2024-02-04T05:47:07;1.92;;;1.83;;
9986;SDS011;5033;46.310;11.214;2024-02-04T05:49:34;2.13;;;2.03;;
9986;SDS011;5033;46.310;11.214;2024-02-04T05:52:03;2.35;;;2.25;;
9986;SDS011;5033;46.310;11.214;2024-02-04T05:54:30;2.20;;;2.10;;
9986;SDS011;5033;46.310;11.214;2024-02-04T05:56:57;2.20;;;2.10;;
9986;SDS011;5033;46.310;11.214;2024-02-04T05:59:24;1.88;;;1.85;;
9986;SDS011;5033;46.310;11.214;2024-02-04T06:01:51;2.22;;;2.13;;
9986;SDS011;5033;46.310;11.214;2024-02-04T06:04:20;2.10;;;2.00;;
9986;SDS011;5033;46.310;11.214;2024-02-04T06:06:47;2.13;;;2.03;;
9986;SDS011;5033;46.310;11.214;2024-02-04T06:09:15;2.03;;;1.92;;
9986;SDS011;5033;46.310;11.214;2024-02-04T06:11:44;2.25;;;2.15;;
9986;SDS011;5033;46.310;11.214;2024-02-04T06:14:11;2.15;;;2.05;;
9986;SDS011;5033;46.310;11.214;2024-02-04T06:16:38;2.28;;;2.17;;
9986;SDS011;5033;46.310;11.214;2024-02-04T06:19:05;2.13;;;2.03;;
9986;SDS011;5033;46.310;11.214;2024-02-04T06:21:34;2.30;;;2.20;;
9986;SDS011;5033;46.310;11.214;2024-02-04T06:24:01;2.13;;;2.03;;
9986;SDS011;5033;46.310;11.214;2024-02-04T06:26:29;2.38;;;2.28;;
9986;SDS011;5033;46.310;11.214;2024-02-04T06:28:56;2.00;;;1.90;;
9986;SDS011;5033;46.310;11.214;2024-02-04T06:31:23;2.33;;;2.13;;
9986;SDS011;5033;46.310;11.214;2024-02-04T06:33:50;1.90;;;1.80;;
9986;SDS011;5033;46.310;11.214;2024-02-04T06:36:17;2.13;;;2.03;;
9986;SDS011;5033;46.310;11.214;2024-02-04T06:38:44;2.20;;;2.10;;
9986;SDS011;5033;46.310;11.214;2024-02-04T06:41:10;2.28;;;2.17;;
9986;SDS011;5033;46.310;11.214;2024-02-04T06:43:39;2.13;;;2.03;;
9986;SDS011;5033;46.310;11.214;2024-02-04T06:46:06;2.17;;;2.08;;
9986;SDS011;5033;46.310;11.214;2024-02-04T06:48:33;2.10;;;2.00;;
9986;SDS011;5033;46.310;11.214;2024-02-04T06:51:00;2.30;;;2.20;;
9986;SDS011;5033;46.310;11.214;2024-02-04T06:53:27;2.22;;;2.13;;
9986;SDS011;5033;46.310;11.214;2024-02-04T06:55:54;2.40;;;2.30;;
9986;SDS011;5033;46.310;11.214;2024-02-04T06:58:20;2.10;;;2.00;;
9986;SDS011;5033;46.310;11.214;2024-02-04T07:00:49;2.10;;;2.00;;
9986;SDS011;5033;46.310;11.214;2024-02-04T07:03:16;2.20;;;2.10;;
9986;SDS011;5033;46.310;11.214;2024-02-04T07:05:43;2.20;;;2.10;;
9986;SDS011;5033;46.310;11.214;2024-02-04T07:08:12;2.17;;;2.08;;
9986;SDS011;5033;46.310;11.214;2024-02-04T07:10:39;2.60;;;2.50;;
9986;SDS011;5033;46.310;11.214;2024-02-04T07:13:06;2.15;;;2.05;;
9986;SDS011;5033;46.310;11.214;2024-02-04T07:15:33;2.15;;;2.05;;
9986;SDS011;5033;46.310;11.214;2024-02-04T07:18:01;2.22;;;2.13;;
9986;SDS011;5033;46.310;11.214;2024-02-04T07:20:28;1.83;;;1.73;;
9986;SDS011;5033;46.310;11.214;2024-02-04T07:22:55;1.92;;;1.83;;
9986;SDS011;5033;46.310;11.214;2024-02-04T07:25:22;2.28;;;2.17;;
9986;SDS011;5033;46.310;11.214;2024-02-04T07:27:49;2.33;;;2.22;;
9986;SDS011;5033;46.310;11.214;2024-02-04T07:30:16;1.52;;;1.52;;
9986;SDS011;5033;46.310;11.214;2024-02-04T07:32:43;1.85;;;1.75;;
9986;SDS011;5033;46.310;11.214;2024-02-04T07:35:12;2.00;;;1.90;;
9986;SDS011;5033;46.310;11.214;2024-02-04T07:37:39;2.28;;;2.17;;
9986;SDS011;5033;46.310;11.214;2024-02-04T07:40:06;1.95;;;1.85;;
9986;SDS011;5033;46.310;11.214;2024-02-04T07:42:34;2.47;;;2.22;;
9986;SDS011;5033;46.310;11.214;2024-02-04T07:45:00;2.13;;;2.03;;
9986;SDS011;5033;46.310;11.214;2024-02-04T07:47:33;2.38;;;2.28;;
9986;SDS011;5033;46.310;11.214;2024-02-04T07:50:00;2.15;;;2.05;;
9986;SDS011;5033;46.310;11.214;2024-02-04T07:52:29;2.58;;;2.47;;
9986;SDS011;5033;46.310;11.214;2024-02-04T07:54:56;2.50;;;2.40;;
9986;SDS011;5033;46.310;11.214;2024-02-04T07:57:23;2.30;;;2.20;;
9986;SDS011;5033;46.310;11.214;2024-02-04T07:59:50;2.15;;;2.05;;
9986;SDS011;5033;46.310;11.214;2024-02-04T08:02:17;2.60;;;2.40;;
9986;SDS011;5033;46.310;11.214;2024-02-04T08:04:44;2.50;;;2.30;;
9986;SDS011;5033;46.310;11.214;2024-02-04T08:07:11;2.30;;;2.20;;
9986;SDS011;5033;46.310;11.214;2024-02-04T08:09:39;2.97;;;2.78;;
9986;SDS011;5033;46.310;11.214;2024-02-04T08:12:06;3.88;;;3.00;;
9986;SDS011;5033;46.310;11.214;2024-02-04T08:14:34;3.10;;;2.80;;
9986;SDS011;5033;46.310;11.214;2024-02-04T08:17:01;2.85;;;2.63;;
9986;SDS011;5033;46.310;11.214;2024-02-04T08:19:28;3.00;;;2.80;;
9986;SDS011;5033;46.310;11.214;2024-02-04T08:21:55;2.70;;;2.50;;
9986;SDS011;5033;46.310;11.214;2024-02-04T08:24:23;2.88;;;2.67;;
9986;SDS011;5033;46.310;11.214;2024-02-04T08:26:52;2.33;;;2.20;;
9986;SDS011;5033;46.310;11.214;2024-02-04T08:29:19;2.17;;;2.03;;
9986;SDS011;5033;46.310;11.214;2024-02-04T08:31:46;2.70;;;2.50;;
9986;SDS011;5033;46.310;11.214;2024-02-04T08:34:13;2.22;;;2.00;;
9986;SDS011;5033;46.310;11.214;2024-02-04T08:36:40;2.50;;;2.30;;
9986;SDS011;5033;46.310;11.214;2024-02-04T08:39:07;2.08;;;1.98;;
9986;SDS011;5033;46.310;11.214;2024-02-04T08:41:34;2.40;;;1.77;;
9986;SDS011;5033;46.310;11.214;2024-02-04T08:44:02;1.98;;;1.88;;
9986;SDS011;5033;46.310;11.214;2024-02-04T08:46:30;4.50;;;2.17;;
9986;SDS011;5033;46.310;11.214;2024-02-04T08:48:56;1.90;;;1.80;;
9986;SDS011;5033;46.310;11.214;2024-02-04T08:51:23;1.77;;;1.67;;
9986;SDS011;5033;46.310;11.214;2024-02-04T08:53:50;1.98;;;1.88;;
9986;SDS011;5033;46.310;11.214;2024-02-04T08:56:18;1.90;;;1.80;;
9986;SDS011;5033;46.310;11.214;2024-02-04T08:58:45;1.88;;;1.77;;
9986;SDS011;5033;46.310;11.214;2024-02-04T09:01:13;2.95;;;1.75;;
9986;SDS011;5033;46.310;11.214;2024-02-04T09:03:40;1.70;;;1.60;;
9986;SDS011;5033;46.310;11.214;2024-02-04T09:06:07;4.55;;;1.90;;
9986;SDS011;5033;46.310;11.214;2024-02-04T09:08:34;2.45;;;1.90;;
9986;SDS011;5033;46.310;11.214;2024-02-04T09:11:01;2.38;;;1.80;;
9986;SDS011;5033;46.310;11.214;2024-02-04T09:13:28;3.08;;;1.85;;
9986;SDS011;5033;46.310;11.214;2024-02-04T09:15:55;2.40;;;2.20;;
9986;SDS011;5033;46.310;11.214;2024-02-04T09:18:23;3.00;;;2.70;;
9986;SDS011;5033;46.310;11.214;2024-02-04T09:20:50;2.75;;;2.13;;
9986;SDS011;5033;46.310;11.214;2024-02-04T09:23:17;2.58;;;2.38;;
9986;SDS011;5033;46.310;11.214;2024-02-04T09:25:44;2.83;;;1.92;;
9986;SDS011;5033;46.310;11.214;2024-02-04T09:28:11;2.72;;;2.53;;
9986;SDS011;5033;46.310;11.214;2024-02-04T09:30:38;3.38;;;2.58;;
9986;SDS011;5033;46.310;11.214;2024-02-04T09:33:05;3.40;;;3.10;;
9986;SDS011;5033;46.310;11.214;2024-02-04T09:35:35;2.97;;;2.65;;
9986;SDS011;5033;46.310;11.214;2024-02-04T09:38:02;2.80;;;2.60;;
9986;SDS011;5033;46.310;11.214;2024-02-04T09:40:29;3.25;;;2.95;;
9986;SDS011;5033;46.310;11.214;2024-02-04T09:42:56;3.45;;;3.03;;
9986;SDS011;5033;46.310;11.214;2024-02-04T09:45:24;3.58;;;2.80;;
9986;SDS011;5033;46.310;11.214;2024-02-04T09:47:52;2.50;;;2.30;;
9986;SDS011;5033;46.310;11.214;2024-02-04T09:50:20;2.35;;;2.25;;
9986;SDS011;5033;46.310;11.214;2024-02-04T09:52:49;2.20;;;2.00;;
9986;SDS011;5033;46.310;11.214;2024-02-04T09:55:16;2.72;;;2.47;;
9986;SDS011;5033;46.310;11.214;2024-02-04T09:57:46;2.65;;;2.45;;
9986;SDS011;5033;46.310;11.214;2024-02-04T10:00:13;2.55;;;2.10;;
9986;SDS011;5033;46.310;11.214;2024-02-04T10:02:44;2.55;;;2.30;;
9986;SDS011;5033;46.310;11.214;2024-02-04T10:05:13;2.40;;;2.20;;
9986;SDS011;5033;46.310;11.214;2024-02-04T10:07:40;2.88;;;2.40;;
9986;SDS011;5033;46.310;11.214;2024-02-04T10:10:09;2.55;;;2.35;;
9986;SDS011;5033;46.310;11.214;2024-02-04T10:12:37;3.63;;;2.38;;
9986;SDS011;5033;46.310;11.214;2024-02-04T10:15:06;2.53;;;2.33;;
9986;SDS011;5033;46.310;11.214;2024-02-04T10:17:34;3.13;;;2.30;;
9986;SDS011;5033;46.310;11.214;2024-02-04T10:20:01;2.50;;;2.30;;
9986;SDS011;5033;46.310;11.214;2024-02-04T10:22:29;3.15;;;2.85;;
9986;SDS011;5033;46.310;11.214;2024-02-04T10:25:05;2.70;;;2.50;;
9986;SDS011;5033;46.310;11.214;2024-02-04T10:27:34;3.75;;;2.53;;
9986;SDS011;5033;46.310;11.214;2024-02-04T10:30:01;2.00;;;1.90;;
9986;SDS011;5033;46.310;11.214;2024-02-04T10:32:28;2.22;;;2.03;;
9986;SDS011;5033;46.310;11.214;2024-02-04T10:34:55;2.00;;;1.77;;
9986;SDS011;5033;46.310;11.214;2024-02-04T10:37:24;2.17;;;2.08;;
9986;SDS011;5033;46.310;11.214;2024-02-04T10:39:51;3.83;;;2.38;;
9986;SDS011;5033;46.310;11.214;2024-02-04T10:42:19;3.40;;;3.10;;
9986;SDS011;5033;46.310;11.214;2024-02-04T10:44:51;3.83;;;3.53;;
9986;SDS011;5033;46.310;11.214;2024-02-04T10:47:21;4.72;;;4.18;;
9986;SDS011;5033;46.310;11.214;2024-02-04T10:49:50;4.75;;;3.75;;
9986;SDS011;5033;46.310;11.214;2024-02-04T10:52:18;4.35;;;3.88;;
9986;SDS011;5033;46.310;11.214;2024-02-04T10:54:46;4.20;;;3.80;;
9986;SDS011;5033;46.310;11.214;2024-02-04T10:57:16;4.15;;;3.72;;
9986;SDS011;5033;46.310;11.214;2024-02-04T10:59:46;3.95;;;3.65;;
9986;SDS011;5033;46.310;11.214;2024-02-04T11:02:15;4.15;;;3.75;;
9986;SDS011;5033;46.310;11.214;2024-02-04T11:04:43;6.82;;;3.72;;
9986;SDS011;5033;46.310;11.214;2024-02-04T11:07:11;3.60;;;3.30;;
9986;SDS011;5033;46.310;11.214;2024-02-04T11:09:40;3.35;;;3.05;;
9986;SDS011;5033;46.310;11.214;2024-02-04T11:12:08;3.92;;;3.22;;
9986;SDS011;5033;46.310;11.214;2024-02-04T11:14:37;3.85;;;3.50;;
9986;SDS011;5033;46.310;11.214;2024-02-04T11:17:11;4.15;;;3.75;;
9986;SDS011;5033;46.310;11.214;2024-02-04T11:20:05;4.00;;;3.60;;
9986;SDS011;5033;46.310;11.214;2024-02-04T11:22:56;3.35;;;2.88;;
9986;SDS011;5033;46.310;11.214;2024-02-04T11:25:43;2.80;;;2.60;;
9986;SDS011;5033;46.310;11.214;2024-02-04T11:28:12;3.13;;;2.90;;
9986;SDS011;5033;46.310;11.214;2024-02-04T11:30:42;4.00;;;3.00;;
9986;SDS011;5033;46.310;11.214;2024-02-04T11:33:13;3.65;;;3.15;;
9986;SDS011;5033;46.310;11.214;2024-02-04T11:35:44;4.53;;;3.17;;
9986;SDS011;5033;46.310;11.214;2024-02-04T11:38:11;3.38;;;2.83;;
9986;SDS011;5033;46.310;11.214;2024-02-04T11:40:43;3.60;;;3.30;;
9986;SDS011;5033;46.310;11.214;2024-02-04T11:43:12;3.70;;;2.70;;
9986;SDS011;5033;46.310;11.214;2024-02-04T11:45:40;2.97;;;2.78;;
9986;SDS011;5033;46.310;11.214;2024-02-04T11:48:09;2.97;;;2.67;;
9986;SDS011;5033;46.310;11.214;2024-02-04T11:50:38;3.17;;;2.88;;
9986;SDS011;5033;46.310;11.214;2024-02-04T11:53:05;2.80;;;2.60;;
9986;SDS011;5033;46.310;11.214;2024-02-04T11:55:33;2.92;;;2.70;;
9986;SDS011;5033;46.310;11.214;2024-02-04T11:58:00;3.10;;;2.80;;
9986;SDS011;5033;46.310;11.214;2024-02-04T12:00:27;2.97;;;2.67;;
9986;SDS011;5033;46.310;11.214;2024-02-04T12:03:01;2.90;;;2.70;;
9986;SDS011;5033;46.310;11.214;2024-02-04T12:05:29;2.92;;;2.65;;
9986;SDS011;5033;46.310;11.214;2024-02-04T12:07:58;3.05;;;2.75;;
9986;SDS011;5033;46.310;11.214;2024-02-04T12:10:26;2.95;;;2.75;;
9986;SDS011;5033;46.310;11.214;2024-02-04T12:12:55;3.10;;;2.80;;
9986;SDS011;5033;46.310;11.214;2024-02-04T12:15:22;2.95;;;2.65;;
9986;SDS011;5033;46.310;11.214;2024-02-04T12:17:49;3.20;;;2.90;;
9986;SDS011;5033;46.310;11.214;2024-02-04T12:20:16;3.15;;;2.85;;
9986;SDS011;5033;46.310;11.214;2024-02-04T12:22:43;2.72;;;2.45;;
9986;SDS011;5033;46.310;11.214;2024-02-04T12:25:11;2.67;;;2.47;;
9986;SDS011;5033;46.310;11.214;2024-02-04T12:27:38;2.40;;;2.20;;
9986;SDS011;5033;46.310;11.214;2024-02-04T12:30:06;3.60;;;2.47;;
9986;SDS011;5033;46.310;11.214;2024-02-04T12:32:35;2.25;;;2.05;;
9986;SDS011;5033;46.310;11.214;2024-02-04T12:35:03;2.63;;;2.42;;
9986;SDS011;5033;46.310;11.214;2024-02-04T12:37:31;3.42;;;2.63;;
9986;SDS011;5033;46.310;11.214;2024-02-04T12:39:59;2.65;;;2.33;;
9986;SDS011;5033;46.310;11.214;2024-02-04T12:42:29;2.60;;;2.40;;
9986;SDS011;5033;46.310;11.214;2024-02-04T12:44:57;2.60;;;2.40;;
9986;SDS011;5033;46.310;11.214;2024-02-04T12:47:24;2.40;;;2.20;;
9986;SDS011;5033;46.310;11.214;2024-02-04T12:49:57;2.53;;;2.15;;
9986;SDS011;5033;46.310;11.214;2024-02-04T12:52:25;2.65;;;2.33;;
9986;SDS011;5033;46.310;11.214;2024-02-04T12:54:52;2.95;;;2.60;;
9986;SDS011;5033;46.310;11.214;2024-02-04T12:57:23;2.40;;;2.20;;
9986;SDS011;5033;46.310;11.214;2024-02-04T12:59:51;2.30;;;2.10;;
9986;SDS011;5033;46.310;11.214;2024-02-04T13:02:18;2.30;;;2.10;;
9986;SDS011;5033;46.310;11.214;2024-02-04T13:04:46;2.40;;;2.20;;
9986;SDS011;5033;46.310;11.214;2024-02-04T13:07:13;2.10;;;2.00;;
9986;SDS011;5033;46.310;11.214;2024-02-04T13:09:42;2.35;;;2.15;;
9986;SDS011;5033;46.310;11.214;2024-02-04T13:12:09;2.50;;;2.30;;
9986;SDS011;5033;46.310;11.214;2024-02-04T13:14:37;2.38;;;2.17;;
9986;SDS011;5033;46.310;11.214;2024-02-04T13:17:06;2.28;;;1.92;;
9986;SDS011;5033;46.310;11.214;2024-02-04T13:19:33;2.30;;;2.20;;
9986;SDS011;5033;46.310;11.214;2024-02-04T13:22:01;2.47;;;2.28;;
9986;SDS011;5033;46.310;11.214;2024-02-04T13:24:28;2.05;;;1.88;;
9986;SDS011;5033;46.310;11.214;2024-02-04T13:26:55;2.22;;;2.10;;
9986;SDS011;5033;46.310;11.214;2024-02-04T13:29:23;2.33;;;2.13;;
9986;SDS011;5033;46.310;11.214;2024-02-04T13:31:50;2.60;;;2.40;;
9986;SDS011;5033;46.310;11.214;2024-02-04T13:34:19;2.92;;;2.65;;
9986;SDS011;5033;46.310;11.214;2024-02-04T13:36:45;2.40;;;2.20;;
9986;SDS011;5033;46.310;11.214;2024-02-04T13:39:12;2.67;;;2.47;;
9986;SDS011;5033;46.310;11.214;2024-02-04T13:41:43;2.45;;;2.25;;
9986;SDS011;5033;46.310;11.214;2024-02-04T13:44:10;2.42;;;2.20;;
9986;SDS011;5033;46.310;11.214;2024-02-04T13:46:36;2.60;;;2.40;;
9986;SDS011;5033;46.310;11.214;2024-02-04T13:49:07;3.35;;;2.53;;
9986;SDS011;5033;46.310;11.214;2024-02-04T13:51:35;2.72;;;2.53;;
9986;SDS011;5033;46.310;11.214;2024-02-04T13:54:02;2.72;;;2.53;;
9986;SDS011;5033;46.310;11.214;2024-02-04T13:56:29;2.40;;;2.20;;
9986;SDS011;5033;46.310;11.214;2024-02-04T13:58:58;2.67;;;2.20;;
9986;SDS011;5033;46.310;11.214;2024-02-04T14:01:25;2.47;;;2.28;;
9986;SDS011;5033;46.310;11.214;2024-02-04T14:03:52;3.53;;;2.60;;
9986;SDS011;5033;46.310;11.214;2024-02-04T14:06:19;2.50;;;2.30;;
9986;SDS011;5033;46.310;11.214;2024-02-04T14:08:47;2.35;;;2.15;;
9986;SDS011;5033;46.310;11.214;2024-02-04T14:11:14;2.20;;;2.00;;
9986;SDS011;5033;46.310;11.214;2024-02-04T14:13:41;2.30;;;2.08;;
9986;SDS011;5033;46.310;11.214;2024-02-04T14:16:07;1.88;;;1.77;;
9986;SDS011;5033;46.310;11.214;2024-02-04T14:18:35;2.10;;;2.00;;
9986;SDS011;5033;46.310;11.214;2024-02-04T14:21:02;1.85;;;1.75;;
9986;SDS011;5033;46.310;11.214;2024-02-04T14:23:30;1.90;;;1.80;;
9986;SDS011;5033;46.310;11.214;2024-02-04T14:25:59;3.13;;;2.30;;
9986;SDS011;5033;46.310;11.214;2024-02-04T14:28:26;2.03;;;1.92;;
9986;SDS011;5033;46.310;11.214;2024-02-04T14:30:53;2.13;;;2.03;;
9986;SDS011;5033;46.310;11.214;2024-02-04T14:33:20;1.88;;;1.70;;
9986;SDS011;5033;46.310;11.214;2024-02-04T14:35:47;1.65;;;1.55;;
9986;SDS011;5033;46.310;11.214;2024-02-04T14:38:13;1.63;;;1.52;;
9986;SDS011;5033;46.310;11.214;2024-02-04T14:40:40;1.70;;;1.60;;
9986;SDS011;5033;46.310;11.214;2024-02-04T14:43:09;1.77;;;1.50;;
9986;SDS011;5033;46.310;11.214;2024-02-04T14:45:37;1.65;;;1.55;;
9986;SDS011;5033;46.310;11.214;2024-02-04T14:48:04;1.70;;;1.60;;
9986;SDS011;5033;46.310;11.214;2024-02-04T14:50:32;1.83;;;1.73;;
9986;SDS011;5033;46.310;11.214;2024-02-04T14:52:59;1.50;;;1.40;;
9986;SDS011;5033;46.310;11.214;2024-02-04T14:55:26;1.67;;;1.58;;
9986;SDS011;5033;46.310;11.214;2024-02-04T14:57:53;1.98;;;1.63;;
9986;SDS011;5033;46.310;11.214;2024-02-04T15:00:22;1.30;;;1.30;;
9986;SDS011;5033;46.310;11.214;2024-02-04T15:02:51;1.52;;;1.42;;
9986;SDS011;5033;46.310;11.214;2024-02-04T15:05:18;1.83;;;1.73;;